sensor_id;sensor_type;location;lat;lon;timestamp;P1;durP1;ratioP1;P2;durP2;ratioP2
69551;SDS011;63774;45.292;11.784;2023-05-16T00:00:53;3.10;;;2.20;;
69551;SDS011;63774;45.292;11.784;2023-05-16T00:03:19;2.80;;;2.00;;
69551;SDS011;63774;45.292;11.784;2023-05-16T00:05:45;3.00;;;2.10;;
69551;SDS011;63774;45.292;11.784;2023-05-16T00:08:10;2.80;;;1.80;;
69551;SDS011;63774;45.292;11.784;2023-05-16T00:10:36;2.90;;;2.00;;
69551;SDS011;63774;45.292;11.784;2023-05-16T00:13:02;2.50;;;1.70;;
69551;SDS011;63774;45.292;11.784;2023-05-16T00:15:28;3.10;;;1.80;;
69551;SDS011;63774;45.292;11.784;2023-05-16T00:17:57;2.60;;;1.70;;
69551;SDS011;63774;45.292;11.784;2023-05-16T00:20:26;3.00;;;1.90;;
69551;SDS011;63774;45.292;11.784;2023-05-16T00:22:52;3.20;;;1.70;;
69551;SDS011;63774;45.292;11.784;2023-05-16T00:25:18;2.70;;;1.70;;
69551;SDS011;63774;45.292;11.784;2023-05-16T00:27:43;2.50;;;1.60;;
69551;SDS011;63774;45.292;11.784;2023-05-16T00:30:09;2.90;;;1.70;;
69551;SDS011;63774;45.292;11.784;2023-05-16T00:32:35;2.40;;;1.50;;
69551;SDS011;63774;45.292;11.784;2023-05-16T00:35:01;3.00;;;1.80;;
69551;SDS011;63774;45.292;11.784;2023-05-16T00:37:27;3.00;;;1.70;;
69551;SDS011;63774;45.292;11.784;2023-05-16T00:39:52;2.80;;;1.60;;
69551;SDS011;63774;45.292;11.784;2023-05-16T00:42:18;2.10;;;1.50;;
69551;SDS011;63774;45.292;11.784;2023-05-16T00:44:45;7.60;;;1.90;;
69551;SDS011;63774;45.292;11.784;2023-05-16T00:47:12;2.10;;;1.70;;
69551;SDS011;63774;45.292;11.784;2023-05-16T00:49:37;2.00;;;1.50;;
69551;SDS011;63774;45.292;11.784;2023-05-16T00:52:03;3.00;;;2.10;;
69551;SDS011;63774;45.292;11.784;2023-05-16T00:54:29;2.40;;;1.80;;
69551;SDS011;63774;45.292;11.784;2023-05-16T00:56:55;2.30;;;1.60;;
69551;SDS011;63774;45.292;11.784;2023-05-16T00:59:25;2.70;;;1.70;;
69551;SDS011;63774;45.292;11.784;2023-05-16T01:01:51;2.70;;;1.90;;
69551;SDS011;63774;45.292;11.784;2023-05-16T01:04:17;2.90;;;1.90;;
69551;SDS011;63774;45.292;11.784;2023-05-16T01:06:43;2.70;;;1.80;;
69551;SDS011;63774;45.292;11.784;2023-05-16T01:09:10;3.30;;;2.00;;
69551;SDS011;63774;45.292;11.784;2023-05-16T01:12:01;2.50;;;1.60;;
69551;SDS011;63774;45.292;11.784;2023-05-16T01:17:52;1.70;;;1.30;;
69551;SDS011;63774;45.292;11.784;2023-05-16T01:28:32;2.10;;;1.40;;
69551;SDS011;63774;45.292;11.784;2023-05-16T01:30:59;3.10;;;1.50;;
69551;SDS011;63774;45.292;11.784;2023-05-16T01:33:24;2.40;;;1.50;;
69551;SDS011;63774;45.292;11.784;2023-05-16T01:35:52;2.00;;;1.40;;
69551;SDS011;63774;45.292;11.784;2023-05-16T01:38:24;2.80;;;1.60;;
69551;SDS011;63774;45.292;11.784;2023-05-16T01:43:33;2.30;;;1.40;;
69551;SDS011;63774;45.292;11.784;2023-05-16T01:46:11;2.50;;;1.40;;
69551;SDS011;63774;45.292;11.784;2023-05-16T01:48:52;2.30;;;1.50;;
69551;SDS011;63774;45.292;11.784;2023-05-16T01:51:21;3.00;;;1.50;;
69551;SDS011;63774;45.292;11.784;2023-05-16T01:53:50;3.60;;;1.30;;
69551;SDS011;63774;45.292;11.784;2023-05-16T01:56:17;2.30;;;1.40;;
69551;SDS011;63774;45.292;11.784;2023-05-16T01:58:44;3.80;;;1.40;;
69551;SDS011;63774;45.292;11.784;2023-05-16T02:01:11;2.30;;;1.40;;
69551;SDS011;63774;45.292;11.784;2023-05-16T02:03:37;2.30;;;1.50;;
69551;SDS011;63774;45.292;11.784;2023-05-16T02:06:03;3.60;;;1.40;;
69551;SDS011;63774;45.292;11.784;2023-05-16T02:08:29;2.60;;;1.60;;
69551;SDS011;63774;45.292;11.784;2023-05-16T02:10:55;2.30;;;1.40;;
69551;SDS011;63774;45.292;11.784;2023-05-16T02:13:20;2.80;;;1.40;;
69551;SDS011;63774;45.292;11.784;2023-05-16T02:15:46;2.90;;;1.50;;
69551;SDS011;63774;45.292;11.784;2023-05-16T02:18:11;4.90;;;1.40;;
69551;SDS011;63774;45.292;11.784;2023-05-16T02:20:37;2.20;;;1.20;;
69551;SDS011;63774;45.292;11.784;2023-05-16T02:23:03;2.90;;;1.50;;
69551;SDS011;63774;45.292;11.784;2023-05-16T02:25:29;3.60;;;1.40;;
69551;SDS011;63774;45.292;11.784;2023-05-16T02:27:54;2.70;;;1.40;;
69551;SDS011;63774;45.292;11.784;2023-05-16T02:30:20;5.00;;;1.60;;
69551;SDS011;63774;45.292;11.784;2023-05-16T02:32:46;2.70;;;1.20;;
69551;SDS011;63774;45.292;11.784;2023-05-16T02:35:13;4.60;;;1.50;;
69551;SDS011;63774;45.292;11.784;2023-05-16T02:37:39;3.00;;;1.40;;
69551;SDS011;63774;45.292;11.784;2023-05-16T02:40:05;3.10;;;1.60;;
69551;SDS011;63774;45.292;11.784;2023-05-16T02:42:31;3.00;;;1.40;;
69551;SDS011;63774;45.292;11.784;2023-05-16T02:44:57;2.00;;;1.30;;
69551;SDS011;63774;45.292;11.784;2023-05-16T02:47:22;2.40;;;1.30;;
69551;SDS011;63774;45.292;11.784;2023-05-16T02:49:48;2.90;;;1.20;;
69551;SDS011;63774;45.292;11.784;2023-05-16T02:52:13;3.20;;;1.40;;
69551;SDS011;63774;45.292;11.784;2023-05-16T02:54:39;3.20;;;1.20;;
69551;SDS011;63774;45.292;11.784;2023-05-16T02:57:05;3.20;;;1.20;;
69551;SDS011;63774;45.292;11.784;2023-05-16T02:59:30;2.40;;;1.10;;
69551;SDS011;63774;45.292;11.784;2023-05-16T03:01:55;4.10;;;1.50;;
69551;SDS011;63774;45.292;11.784;2023-05-16T03:04:21;2.40;;;1.20;;
69551;SDS011;63774;45.292;11.784;2023-05-16T03:06:47;3.80;;;1.30;;
69551;SDS011;63774;45.292;11.784;2023-05-16T03:09:15;3.30;;;1.30;;
69551;SDS011;63774;45.292;11.784;2023-05-16T03:11:41;2.60;;;0.90;;
69551;SDS011;63774;45.292;11.784;2023-05-16T03:14:06;2.50;;;1.20;;
69551;SDS011;63774;45.292;11.784;2023-05-16T03:16:32;2.20;;;1.30;;
69551;SDS011;63774;45.292;11.784;2023-05-16T03:18:58;3.40;;;1.50;;
69551;SDS011;63774;45.292;11.784;2023-05-16T03:21:23;3.30;;;1.20;;
69551;SDS011;63774;45.292;11.784;2023-05-16T03:23:49;2.20;;;1.20;;
69551;SDS011;63774;45.292;11.784;2023-05-16T03:26:14;3.90;;;1.10;;
69551;SDS011;63774;45.292;11.784;2023-05-16T03:28:40;3.00;;;1.00;;
69551;SDS011;63774;45.292;11.784;2023-05-16T03:31:05;3.70;;;1.00;;
69551;SDS011;63774;45.292;11.784;2023-05-16T03:33:31;2.00;;;1.10;;
69551;SDS011;63774;45.292;11.784;2023-05-16T03:35:56;2.00;;;1.00;;
69551;SDS011;63774;45.292;11.784;2023-05-16T03:38:22;2.40;;;1.00;;
69551;SDS011;63774;45.292;11.784;2023-05-16T03:40:48;2.30;;;1.10;;
69551;SDS011;63774;45.292;11.784;2023-05-16T03:43:13;2.10;;;1.00;;
69551;SDS011;63774;45.292;11.784;2023-05-16T03:45:39;2.10;;;0.90;;
69551;SDS011;63774;45.292;11.784;2023-05-16T03:48:04;3.30;;;1.10;;
69551;SDS011;63774;45.292;11.784;2023-05-16T03:50:30;3.70;;;0.90;;
69551;SDS011;63774;45.292;11.784;2023-05-16T03:52:55;2.20;;;1.10;;
69551;SDS011;63774;45.292;11.784;2023-05-16T03:55:21;3.00;;;1.00;;
69551;SDS011;63774;45.292;11.784;2023-05-16T03:57:46;2.20;;;1.10;;
69551;SDS011;63774;45.292;11.784;2023-05-16T04:00:14;1.90;;;0.90;;
69551;SDS011;63774;45.292;11.784;2023-05-16T04:02:40;2.60;;;1.00;;
69551;SDS011;63774;45.292;11.784;2023-05-16T04:05:06;4.80;;;1.30;;
69551;SDS011;63774;45.292;11.784;2023-05-16T04:07:33;3.30;;;0.80;;
69551;SDS011;63774;45.292;11.784;2023-05-16T04:09:59;3.90;;;1.10;;
69551;SDS011;63774;45.292;11.784;2023-05-16T04:12:24;1.70;;;0.90;;
69551;SDS011;63774;45.292;11.784;2023-05-16T04:14:50;1.50;;;0.80;;
69551;SDS011;63774;45.292;11.784;2023-05-16T04:17:15;2.40;;;1.00;;
69551;SDS011;63774;45.292;11.784;2023-05-16T04:19:41;2.50;;;1.20;;
69551;SDS011;63774;45.292;11.784;2023-05-16T04:22:06;2.20;;;0.90;;
69551;SDS011;63774;45.292;11.784;2023-05-16T04:24:32;2.10;;;1.00;;
69551;SDS011;63774;45.292;11.784;2023-05-16T04:26:58;2.40;;;0.80;;
69551;SDS011;63774;45.292;11.784;2023-05-16T04:29:23;1.80;;;0.80;;
69551;SDS011;63774;45.292;11.784;2023-05-16T04:31:49;1.60;;;0.90;;
69551;SDS011;63774;45.292;11.784;2023-05-16T04:34:15;1.80;;;0.90;;
69551;SDS011;63774;45.292;11.784;2023-05-16T04:36:40;3.60;;;0.90;;
69551;SDS011;63774;45.292;11.784;2023-05-16T04:39:06;1.10;;;0.70;;
69551;SDS011;63774;45.292;11.784;2023-05-16T04:41:32;1.60;;;0.80;;
69551;SDS011;63774;45.292;11.784;2023-05-16T04:44:02;1.20;;;0.80;;
69551;SDS011;63774;45.292;11.784;2023-05-16T04:46:30;1.60;;;0.80;;
69551;SDS011;63774;45.292;11.784;2023-05-16T04:48:56;1.60;;;0.80;;
69551;SDS011;63774;45.292;11.784;2023-05-16T04:51:21;2.70;;;0.80;;
69551;SDS011;63774;45.292;11.784;2023-05-16T04:53:47;5.10;;;0.80;;
69551;SDS011;63774;45.292;11.784;2023-05-16T04:56:12;1.30;;;0.60;;
69551;SDS011;63774;45.292;11.784;2023-05-16T04:58:38;2.40;;;0.90;;
69551;SDS011;63774;45.292;11.784;2023-05-16T05:01:04;2.00;;;0.90;;
69551;SDS011;63774;45.292;11.784;2023-05-16T05:03:29;1.70;;;0.80;;
69551;SDS011;63774;45.292;11.784;2023-05-16T05:05:54;1.90;;;0.70;;
69551;SDS011;63774;45.292;11.784;2023-05-16T05:08:20;1.90;;;0.80;;
69551;SDS011;63774;45.292;11.784;2023-05-16T05:10:46;0.90;;;0.70;;
69551;SDS011;63774;45.292;11.784;2023-05-16T05:13:11;0.90;;;0.70;;
69551;SDS011;63774;45.292;11.784;2023-05-16T05:15:37;1.00;;;0.60;;
69551;SDS011;63774;45.292;11.784;2023-05-16T05:18:02;2.20;;;0.80;;
69551;SDS011;63774;45.292;11.784;2023-05-16T05:20:28;1.10;;;0.60;;
69551;SDS011;63774;45.292;11.784;2023-05-16T05:22:54;1.80;;;0.60;;
69551;SDS011;63774;45.292;11.784;2023-05-16T05:25:19;1.70;;;0.80;;
69551;SDS011;63774;45.292;11.784;2023-05-16T05:27:44;1.20;;;0.80;;
69551;SDS011;63774;45.292;11.784;2023-05-16T05:30:10;1.60;;;0.80;;
69551;SDS011;63774;45.292;11.784;2023-05-16T05:32:36;2.70;;;0.80;;
69551;SDS011;63774;45.292;11.784;2023-05-16T05:35:02;3.40;;;0.90;;
69551;SDS011;63774;45.292;11.784;2023-05-16T05:37:28;1.20;;;0.80;;
69551;SDS011;63774;45.292;11.784;2023-05-16T05:39:54;2.80;;;0.80;;
69551;SDS011;63774;45.292;11.784;2023-05-16T05:42:19;2.30;;;0.80;;
69551;SDS011;63774;45.292;11.784;2023-05-16T05:44:45;0.90;;;0.80;;
69551;SDS011;63774;45.292;11.784;2023-05-16T05:47:10;1.70;;;0.70;;
69551;SDS011;63774;45.292;11.784;2023-05-16T05:49:36;2.60;;;0.80;;
69551;SDS011;63774;45.292;11.784;2023-05-16T05:52:02;1.80;;;0.70;;
69551;SDS011;63774;45.292;11.784;2023-05-16T05:54:28;1.50;;;0.80;;
69551;SDS011;63774;45.292;11.784;2023-05-16T05:56:55;1.40;;;0.80;;
69551;SDS011;63774;45.292;11.784;2023-05-16T05:59:22;1.40;;;0.70;;
69551;SDS011;63774;45.292;11.784;2023-05-16T06:01:47;1.30;;;0.90;;
69551;SDS011;63774;45.292;11.784;2023-05-16T06:04:19;2.00;;;1.10;;
69551;SDS011;63774;45.292;11.784;2023-05-16T06:06:45;1.10;;;0.70;;
69551;SDS011;63774;45.292;11.784;2023-05-16T06:09:11;1.30;;;0.60;;
69551;SDS011;63774;45.292;11.784;2023-05-16T06:11:38;3.20;;;0.80;;
69551;SDS011;63774;45.292;11.784;2023-05-16T06:14:03;1.60;;;0.80;;
69551;SDS011;63774;45.292;11.784;2023-05-16T06:16:29;2.30;;;0.90;;
69551;SDS011;63774;45.292;11.784;2023-05-16T06:18:55;1.00;;;0.70;;
69551;SDS011;63774;45.292;11.784;2023-05-16T06:21:20;1.70;;;0.80;;
69551;SDS011;63774;45.292;11.784;2023-05-16T06:23:46;1.50;;;0.60;;
69551;SDS011;63774;45.292;11.784;2023-05-16T06:26:11;1.50;;;0.80;;
69551;SDS011;63774;45.292;11.784;2023-05-16T06:28:37;2.20;;;0.80;;
69551;SDS011;63774;45.292;11.784;2023-05-16T06:31:02;1.40;;;0.80;;
69551;SDS011;63774;45.292;11.784;2023-05-16T06:33:28;2.40;;;0.90;;
69551;SDS011;63774;45.292;11.784;2023-05-16T06:35:53;1.20;;;0.60;;
69551;SDS011;63774;45.292;11.784;2023-05-16T06:38:19;2.70;;;0.90;;
69551;SDS011;63774;45.292;11.784;2023-05-16T06:40:44;3.20;;;1.00;;
69551;SDS011;63774;45.292;11.784;2023-05-16T06:43:10;1.70;;;0.80;;
69551;SDS011;63774;45.292;11.784;2023-05-16T06:45:36;1.60;;;0.80;;
69551;SDS011;63774;45.292;11.784;2023-05-16T06:48:01;6.50;;;1.00;;
69551;SDS011;63774;45.292;11.784;2023-05-16T06:50:28;1.70;;;0.80;;
69551;SDS011;63774;45.292;11.784;2023-05-16T06:52:53;1.90;;;0.90;;
69551;SDS011;63774;45.292;11.784;2023-05-16T06:55:19;2.40;;;0.90;;
69551;SDS011;63774;45.292;11.784;2023-05-16T06:57:44;2.90;;;0.80;;
69551;SDS011;63774;45.292;11.784;2023-05-16T07:00:10;1.60;;;0.80;;
69551;SDS011;63774;45.292;11.784;2023-05-16T07:02:36;2.40;;;1.10;;
69551;SDS011;63774;45.292;11.784;2023-05-16T07:05:01;3.10;;;0.90;;
69551;SDS011;63774;45.292;11.784;2023-05-16T07:07:26;1.30;;;0.70;;
69551;SDS011;63774;45.292;11.784;2023-05-16T07:09:52;1.60;;;1.00;;
69551;SDS011;63774;45.292;11.784;2023-05-16T07:12:18;1.60;;;0.70;;
69551;SDS011;63774;45.292;11.784;2023-05-16T07:14:43;3.00;;;0.90;;
69551;SDS011;63774;45.292;11.784;2023-05-16T07:17:09;3.70;;;1.00;;
69551;SDS011;63774;45.292;11.784;2023-05-16T07:19:35;2.10;;;0.90;;
69551;SDS011;63774;45.292;11.784;2023-05-16T07:22:01;4.00;;;1.00;;
69551;SDS011;63774;45.292;11.784;2023-05-16T07:24:26;2.90;;;1.10;;
69551;SDS011;63774;45.292;11.784;2023-05-16T07:26:52;1.70;;;0.90;;
69551;SDS011;63774;45.292;11.784;2023-05-16T07:29:17;3.20;;;1.20;;
69551;SDS011;63774;45.292;11.784;2023-05-16T07:31:43;3.00;;;1.10;;
69551;SDS011;63774;45.292;11.784;2023-05-16T07:34:08;2.20;;;0.90;;
69551;SDS011;63774;45.292;11.784;2023-05-16T07:36:35;4.20;;;1.20;;
69551;SDS011;63774;45.292;11.784;2023-05-16T07:39:00;2.90;;;1.00;;
69551;SDS011;63774;45.292;11.784;2023-05-16T07:41:26;2.40;;;1.00;;
69551;SDS011;63774;45.292;11.784;2023-05-16T07:43:53;3.70;;;1.20;;
69551;SDS011;63774;45.292;11.784;2023-05-16T07:46:18;3.80;;;1.20;;
69551;SDS011;63774;45.292;11.784;2023-05-16T07:48:44;1.50;;;1.00;;
69551;SDS011;63774;45.292;11.784;2023-05-16T07:51:09;2.60;;;0.90;;
69551;SDS011;63774;45.292;11.784;2023-05-16T07:53:35;1.50;;;1.00;;
69551;SDS011;63774;45.292;11.784;2023-05-16T07:56:00;2.20;;;1.00;;
69551;SDS011;63774;45.292;11.784;2023-05-16T07:58:26;2.70;;;1.00;;
69551;SDS011;63774;45.292;11.784;2023-05-16T08:00:51;1.80;;;0.90;;
69551;SDS011;63774;45.292;11.784;2023-05-16T08:03:17;3.60;;;1.10;;
69551;SDS011;63774;45.292;11.784;2023-05-16T08:05:42;2.70;;;1.00;;
69551;SDS011;63774;45.292;11.784;2023-05-16T08:08:08;1.40;;;1.00;;
69551;SDS011;63774;45.292;11.784;2023-05-16T08:10:33;3.20;;;1.20;;
69551;SDS011;63774;45.292;11.784;2023-05-16T08:12:59;2.60;;;1.00;;
69551;SDS011;63774;45.292;11.784;2023-05-16T08:15:25;5.00;;;1.00;;
69551;SDS011;63774;45.292;11.784;2023-05-16T08:17:53;2.90;;;1.20;;
69551;SDS011;63774;45.292;11.784;2023-05-16T08:20:21;2.60;;;1.10;;
69551;SDS011;63774;45.292;11.784;2023-05-16T08:22:46;4.40;;;1.40;;
69551;SDS011;63774;45.292;11.784;2023-05-16T08:25:12;3.80;;;1.60;;
69551;SDS011;63774;45.292;11.784;2023-05-16T08:27:37;4.60;;;1.40;;
69551;SDS011;63774;45.292;11.784;2023-05-16T08:30:03;3.20;;;1.70;;
69551;SDS011;63774;45.292;11.784;2023-05-16T08:32:29;3.40;;;1.50;;
69551;SDS011;63774;45.292;11.784;2023-05-16T08:34:54;3.20;;;1.40;;
69551;SDS011;63774;45.292;11.784;2023-05-16T08:37:20;2.80;;;1.40;;
69551;SDS011;63774;45.292;11.784;2023-05-16T08:39:45;4.70;;;1.60;;
69551;SDS011;63774;45.292;11.784;2023-05-16T08:42:11;2.60;;;1.30;;
69551;SDS011;63774;45.292;11.784;2023-05-16T08:44:36;4.10;;;1.60;;
69551;SDS011;63774;45.292;11.784;2023-05-16T08:47:07;2.90;;;1.40;;
69551;SDS011;63774;45.292;11.784;2023-05-16T08:49:39;2.40;;;1.30;;
69551;SDS011;63774;45.292;11.784;2023-05-16T08:52:07;5.40;;;1.40;;
69551;SDS011;63774;45.292;11.784;2023-05-16T08:54:33;5.10;;;1.60;;
69551;SDS011;63774;45.292;11.784;2023-05-16T08:57:00;3.20;;;1.40;;
69551;SDS011;63774;45.292;11.784;2023-05-16T08:59:27;4.60;;;1.20;;
69551;SDS011;63774;45.292;11.784;2023-05-16T09:01:54;2.40;;;1.30;;
69551;SDS011;63774;45.292;11.784;2023-05-16T09:04:20;3.30;;;1.20;;
69551;SDS011;63774;45.292;11.784;2023-05-16T09:06:46;4.40;;;1.50;;
69551;SDS011;63774;45.292;11.784;2023-05-16T09:09:12;3.60;;;1.70;;
69551;SDS011;63774;45.292;11.784;2023-05-16T09:11:38;2.70;;;1.40;;
69551;SDS011;63774;45.292;11.784;2023-05-16T09:14:04;2.90;;;1.40;;
69551;SDS011;63774;45.292;11.784;2023-05-16T09:16:29;3.80;;;1.40;;
69551;SDS011;63774;45.292;11.784;2023-05-16T09:18:57;3.00;;;1.50;;
69551;SDS011;63774;45.292;11.784;2023-05-16T09:21:28;2.30;;;1.40;;
69551;SDS011;63774;45.292;11.784;2023-05-16T09:23:56;3.70;;;1.20;;
69551;SDS011;63774;45.292;11.784;2023-05-16T09:26:26;2.50;;;1.30;;
69551;SDS011;63774;45.292;11.784;2023-05-16T09:28:53;2.80;;;1.30;;
69551;SDS011;63774;45.292;11.784;2023-05-16T09:31:22;3.60;;;1.70;;
69551;SDS011;63774;45.292;11.784;2023-05-16T09:33:57;2.50;;;1.50;;
69551;SDS011;63774;45.292;11.784;2023-05-16T09:36:23;3.00;;;1.40;;
69551;SDS011;63774;45.292;11.784;2023-05-16T09:38:50;3.40;;;1.90;;
69551;SDS011;63774;45.292;11.784;2023-05-16T09:41:16;4.70;;;1.60;;
69551;SDS011;63774;45.292;11.784;2023-05-16T09:43:42;3.00;;;1.60;;
69551;SDS011;63774;45.292;11.784;2023-05-16T09:46:12;3.70;;;1.60;;
69551;SDS011;63774;45.292;11.784;2023-05-16T09:48:46;2.60;;;1.40;;
69551;SDS011;63774;45.292;11.784;2023-05-16T09:51:12;2.00;;;1.60;;
69551;SDS011;63774;45.292;11.784;2023-05-16T09:53:38;3.30;;;1.60;;
69551;SDS011;63774;45.292;11.784;2023-05-16T09:56:15;4.10;;;1.60;;
69551;SDS011;63774;45.292;11.784;2023-05-16T09:58:41;4.00;;;1.60;;
69551;SDS011;63774;45.292;11.784;2023-05-16T10:01:09;2.10;;;1.40;;
69551;SDS011;63774;45.292;11.784;2023-05-16T10:03:37;4.30;;;1.50;;
69551;SDS011;63774;45.292;11.784;2023-05-16T10:06:05;4.10;;;1.70;;
69551;SDS011;63774;45.292;11.784;2023-05-16T10:08:31;2.60;;;1.60;;
69551;SDS011;63774;45.292;11.784;2023-05-16T10:11:00;3.20;;;1.80;;
69551;SDS011;63774;45.292;11.784;2023-05-16T10:13:28;2.90;;;1.50;;
69551;SDS011;63774;45.292;11.784;2023-05-16T10:15:55;2.40;;;1.60;;
69551;SDS011;63774;45.292;11.784;2023-05-16T10:18:22;2.70;;;1.50;;
69551;SDS011;63774;45.292;11.784;2023-05-16T10:20:54;4.40;;;1.60;;
69551;SDS011;63774;45.292;11.784;2023-05-16T10:23:21;2.70;;;1.70;;
69551;SDS011;63774;45.292;11.784;2023-05-16T10:25:49;3.70;;;1.80;;
69551;SDS011;63774;45.292;11.784;2023-05-16T10:28:16;3.20;;;1.70;;
69551;SDS011;63774;45.292;11.784;2023-05-16T10:30:46;3.10;;;1.60;;
69551;SDS011;63774;45.292;11.784;2023-05-16T10:33:12;3.40;;;1.70;;
69551;SDS011;63774;45.292;11.784;2023-05-16T10:35:39;3.60;;;1.60;;
69551;SDS011;63774;45.292;11.784;2023-05-16T10:38:05;4.00;;;1.80;;
69551;SDS011;63774;45.292;11.784;2023-05-16T10:40:33;2.30;;;1.60;;
69551;SDS011;63774;45.292;11.784;2023-05-16T10:43:01;3.70;;;1.80;;
69551;SDS011;63774;45.292;11.784;2023-05-16T10:45:28;3.20;;;1.80;;
69551;SDS011;63774;45.292;11.784;2023-05-16T10:50:30;4.70;;;1.70;;
69551;SDS011;63774;45.292;11.784;2023-05-16T11:06:23;3.40;;;1.90;;
69551;SDS011;63774;45.292;11.784;2023-05-16T11:11:40;2.80;;;1.60;;
69551;SDS011;63774;45.292;11.784;2023-05-16T11:14:17;6.50;;;1.70;;
69551;SDS011;63774;45.292;11.784;2023-05-16T11:16:51;3.30;;;1.60;;
69551;SDS011;63774;45.292;11.784;2023-05-16T11:19:28;3.00;;;2.00;;
69551;SDS011;63774;45.292;11.784;2023-05-16T11:24:52;3.90;;;1.90;;
69551;SDS011;63774;45.292;11.784;2023-05-16T11:27:29;2.40;;;1.50;;
69551;SDS011;63774;45.292;11.784;2023-05-16T11:32:30;6.30;;;1.80;;
69551;SDS011;63774;45.292;11.784;2023-05-16T11:35:00;5.10;;;1.80;;
69551;SDS011;63774;45.292;11.784;2023-05-16T11:37:29;3.20;;;1.70;;
69551;SDS011;63774;45.292;11.784;2023-05-16T11:40:01;3.00;;;1.40;;
69551;SDS011;63774;45.292;11.784;2023-05-16T11:42:29;3.80;;;1.50;;
69551;SDS011;63774;45.292;11.784;2023-05-16T11:45:07;2.10;;;1.40;;
69551;SDS011;63774;45.292;11.784;2023-05-16T11:47:36;2.70;;;1.50;;
69551;SDS011;63774;45.292;11.784;2023-05-16T11:50:05;3.40;;;1.40;;
69551;SDS011;63774;45.292;11.784;2023-05-16T11:52:34;3.10;;;1.30;;
69551;SDS011;63774;45.292;11.784;2023-05-16T11:55:00;2.00;;;1.20;;
69551;SDS011;63774;45.292;11.784;2023-05-16T11:57:26;2.50;;;1.30;;
69551;SDS011;63774;45.292;11.784;2023-05-16T11:59:52;2.70;;;1.10;;
69551;SDS011;63774;45.292;11.784;2023-05-16T12:02:18;3.60;;;1.40;;
69551;SDS011;63774;45.292;11.784;2023-05-16T12:04:47;2.00;;;1.00;;
69551;SDS011;63774;45.292;11.784;2023-05-16T12:07:14;2.30;;;1.20;;
69551;SDS011;63774;45.292;11.784;2023-05-16T12:09:40;1.40;;;0.90;;
69551;SDS011;63774;45.292;11.784;2023-05-16T12:12:06;2.00;;;1.00;;
69551;SDS011;63774;45.292;11.784;2023-05-16T12:14:32;1.80;;;1.00;;
69551;SDS011;63774;45.292;11.784;2023-05-16T12:16:57;2.70;;;1.30;;
69551;SDS011;63774;45.292;11.784;2023-05-16T12:19:23;3.40;;;1.10;;
69551;SDS011;63774;45.292;11.784;2023-05-16T12:21:52;1.80;;;0.90;;
69551;SDS011;63774;45.292;11.784;2023-05-16T12:24:18;1.70;;;1.00;;
69551;SDS011;63774;45.292;11.784;2023-05-16T12:26:45;2.30;;;1.00;;
69551;SDS011;63774;45.292;11.784;2023-05-16T12:29:10;2.70;;;0.80;;
69551;SDS011;63774;45.292;11.784;2023-05-16T12:31:39;2.80;;;0.90;;
69551;SDS011;63774;45.292;11.784;2023-05-16T12:34:15;1.30;;;0.90;;
69551;SDS011;63774;45.292;11.784;2023-05-16T12:36:51;1.70;;;1.00;;
69551;SDS011;63774;45.292;11.784;2023-05-16T12:39:17;2.90;;;1.00;;
69551;SDS011;63774;45.292;11.784;2023-05-16T12:41:43;2.30;;;0.90;;
69551;SDS011;63774;45.292;11.784;2023-05-16T12:46:42;2.70;;;0.70;;
69551;SDS011;63774;45.292;11.784;2023-05-16T12:49:09;1.80;;;0.70;;
69551;SDS011;63774;45.292;11.784;2023-05-16T12:51:35;1.60;;;0.70;;
69551;SDS011;63774;45.292;11.784;2023-05-16T12:54:10;1.60;;;0.70;;
69551;SDS011;63774;45.292;11.784;2023-05-16T12:56:42;1.90;;;0.90;;
69551;SDS011;63774;45.292;11.784;2023-05-16T12:59:08;2.80;;;0.90;;
69551;SDS011;63774;45.292;11.784;2023-05-16T13:01:36;2.60;;;0.90;;
69551;SDS011;63774;45.292;11.784;2023-05-16T13:04:03;2.80;;;0.90;;
69551;SDS011;63774;45.292;11.784;2023-05-16T13:06:32;1.20;;;0.80;;
69551;SDS011;63774;45.292;11.784;2023-05-16T13:08:58;1.50;;;0.70;;
69551;SDS011;63774;45.292;11.784;2023-05-16T13:11:24;1.60;;;0.80;;
69551;SDS011;63774;45.292;11.784;2023-05-16T13:13:50;2.30;;;0.60;;
69551;SDS011;63774;45.292;11.784;2023-05-16T13:16:16;1.70;;;0.60;;
69551;SDS011;63774;45.292;11.784;2023-05-16T13:18:42;2.70;;;0.60;;
69551;SDS011;63774;45.292;11.784;2023-05-16T13:21:08;1.70;;;0.70;;
69551;SDS011;63774;45.292;11.784;2023-05-16T13:23:34;1.00;;;0.70;;
69551;SDS011;63774;45.292;11.784;2023-05-16T13:25:59;2.00;;;0.70;;
69551;SDS011;63774;45.292;11.784;2023-05-16T13:28:25;2.60;;;0.60;;
69551;SDS011;63774;45.292;11.784;2023-05-16T13:30:50;0.90;;;0.70;;
69551;SDS011;63774;45.292;11.784;2023-05-16T13:33:16;1.00;;;0.70;;
69551;SDS011;63774;45.292;11.784;2023-05-16T13:35:42;1.40;;;0.60;;
69551;SDS011;63774;45.292;11.784;2023-05-16T13:38:08;1.10;;;0.60;;
69551;SDS011;63774;45.292;11.784;2023-05-16T13:40:33;1.20;;;0.70;;
69551;SDS011;63774;45.292;11.784;2023-05-16T13:43:00;0.70;;;0.50;;
69551;SDS011;63774;45.292;11.784;2023-05-16T13:45:26;1.00;;;0.60;;
69551;SDS011;63774;45.292;11.784;2023-05-16T13:47:52;1.20;;;0.60;;
69551;SDS011;63774;45.292;11.784;2023-05-16T13:50:18;1.20;;;0.60;;
69551;SDS011;63774;45.292;11.784;2023-05-16T13:52:44;1.10;;;0.50;;
69551;SDS011;63774;45.292;11.784;2023-05-16T13:55:11;3.40;;;0.50;;
69551;SDS011;63774;45.292;11.784;2023-05-16T13:57:37;1.50;;;0.70;;
69551;SDS011;63774;45.292;11.784;2023-05-16T14:00:03;0.70;;;0.50;;
69551;SDS011;63774;45.292;11.784;2023-05-16T14:02:36;2.10;;;0.60;;
69551;SDS011;63774;45.292;11.784;2023-05-16T14:05:05;1.80;;;0.50;;
69551;SDS011;63774;45.292;11.784;2023-05-16T14:07:31;1.60;;;0.50;;
69551;SDS011;63774;45.292;11.784;2023-05-16T14:09:57;1.20;;;0.50;;
69551;SDS011;63774;45.292;11.784;2023-05-16T14:12:22;1.90;;;0.60;;
69551;SDS011;63774;45.292;11.784;2023-05-16T14:14:48;1.30;;;0.60;;
69551;SDS011;63774;45.292;11.784;2023-05-16T14:17:13;1.50;;;0.50;;
69551;SDS011;63774;45.292;11.784;2023-05-16T14:19:39;2.90;;;1.20;;
69551;SDS011;63774;45.292;11.784;2023-05-16T14:22:04;1.50;;;0.40;;
69551;SDS011;63774;45.292;11.784;2023-05-16T14:24:30;1.10;;;0.50;;
69551;SDS011;63774;45.292;11.784;2023-05-16T14:26:55;0.90;;;0.50;;
69551;SDS011;63774;45.292;11.784;2023-05-16T14:29:21;0.70;;;0.40;;
69551;SDS011;63774;45.292;11.784;2023-05-16T14:31:46;2.00;;;0.50;;
69551;SDS011;63774;45.292;11.784;2023-05-16T14:34:12;0.90;;;0.40;;
69551;SDS011;63774;45.292;11.784;2023-05-16T14:36:38;1.70;;;0.40;;
69551;SDS011;63774;45.292;11.784;2023-05-16T14:39:03;1.30;;;0.60;;
69551;SDS011;63774;45.292;11.784;2023-05-16T14:41:29;2.20;;;0.50;;
69551;SDS011;63774;45.292;11.784;2023-05-16T14:43:54;1.10;;;0.60;;
69551;SDS011;63774;45.292;11.784;2023-05-16T14:46:20;0.50;;;0.40;;
69551;SDS011;63774;45.292;11.784;2023-05-16T14:48:45;1.50;;;0.50;;
69551;SDS011;63774;45.292;11.784;2023-05-16T14:51:11;1.30;;;0.50;;
69551;SDS011;63774;45.292;11.784;2023-05-16T14:53:37;0.90;;;0.40;;
69551;SDS011;63774;45.292;11.784;2023-05-16T14:56:02;2.10;;;0.50;;
69551;SDS011;63774;45.292;11.784;2023-05-16T14:58:28;0.80;;;0.40;;
69551;SDS011;63774;45.292;11.784;2023-05-16T15:00:54;0.60;;;0.40;;
69551;SDS011;63774;45.292;11.784;2023-05-16T15:03:20;1.60;;;0.40;;
69551;SDS011;63774;45.292;11.784;2023-05-16T15:05:46;1.50;;;0.50;;
69551;SDS011;63774;45.292;11.784;2023-05-16T15:08:12;2.70;;;0.40;;
69551;SDS011;63774;45.292;11.784;2023-05-16T15:10:37;0.70;;;0.40;;